sensor_id;sensor_type;location;lat;lon;timestamp;temperature;humidity
12604;DHT22;6367;52.508;13.284;2023-07-20T00:00:52;20.90;99.90
12604;DHT22;6367;52.508;13.284;2023-07-20T00:03:19;20.90;99.90
12604;DHT22;6367;52.508;13.284;2023-07-20T00:05:49;20.90;99.90
12604;DHT22;6367;52.508;13.284;2023-07-20T00:08:15;20.80;99.90
12604;DHT22;6367;52.508;13.284;2023-07-20T00:10:41;20.80;99.90
12604;DHT22;6367;52.508;13.284;2023-07-20T00:13:07;20.80;99.90
12604;DHT22;6367;52.508;13.284;2023-07-20T00:15:33;20.80;99.90
12604;DHT22;6367;52.508;13.284;2023-07-20T00:17:58;20.80;99.90
12604;DHT22;6367;52.508;13.284;2023-07-20T00:20:24;20.80;99.90
12604;DHT22;6367;52.508;13.284;2023-07-20T00:22:51;20.80;99.90
12604;DHT22;6367;52.508;13.284;2023-07-20T00:25:17;20.80;99.90
12604;DHT22;6367;52.508;13.284;2023-07-20T00:27:43;20.80;99.90
12604;DHT22;6367;52.508;13.284;2023-07-20T00:30:09;20.80;99.90
12604;DHT22;6367;52.508;13.284;2023-07-20T00:32:35;20.80;99.90
12604;DHT22;6367;52.508;13.284;2023-07-20T00:35:01;20.80;99.90
12604;DHT22;6367;52.508;13.284;2023-07-20T00:37:26;20.80;99.90
12604;DHT22;6367;52.508;13.284;2023-07-20T00:39:53;20.80;99.90
12604;DHT22;6367;52.508;13.284;2023-07-20T00:42:18;20.70;99.90
12604;DHT22;6367;52.508;13.284;2023-07-20T00:44:44;20.70;99.90
12604;DHT22;6367;52.508;13.284;2023-07-20T00:47:10;20.70;99.90
12604;DHT22;6367;52.508;13.284;2023-07-20T00:49:37;20.70;99.90
12604;DHT22;6367;52.508;13.284;2023-07-20T00:52:03;20.60;99.90
12604;DHT22;6367;52.508;13.284;2023-07-20T00:54:31;20.60;99.90
12604;DHT22;6367;52.508;13.284;2023-07-20T00:56:57;20.60;99.90
12604;DHT22;6367;52.508;13.284;2023-07-20T00:59:23;20.50;99.90
12604;DHT22;6367;52.508;13.284;2023-07-20T01:01:49;20.60;99.90
12604;DHT22;6367;52.508;13.284;2023-07-20T01:04:15;20.50;99.90
12604;DHT22;6367;52.508;13.284;2023-07-20T01:09:59;20.40;99.90
12604;DHT22;6367;52.508;13.284;2023-07-20T01:12:26;20.40;99.90
12604;DHT22;6367;52.508;13.284;2023-07-20T01:14:53;20.40;99.90
12604;DHT22;6367;52.508;13.284;2023-07-20T01:17:19;20.40;99.90
12604;DHT22;6367;52.508;13.284;2023-07-20T01:19:45;20.40;99.90
12604;DHT22;6367;52.508;13.284;2023-07-20T01:33:26;20.30;99.90
12604;DHT22;6367;52.508;13.284;2023-07-20T01:35:55;20.30;99.90
12604;DHT22;6367;52.508;13.284;2023-07-20T01:38:23;20.10;99.90
12604;DHT22;6367;52.508;13.284;2023-07-20T01:40:49;20.10;99.90
12604;DHT22;6367;52.508;13.284;2023-07-20T01:43:16;20.10;99.90
12604;DHT22;6367;52.508;13.284;2023-07-20T01:45:41;20.20;99.90
12604;DHT22;6367;52.508;13.284;2023-07-20T01:48:07;20.20;99.90
12604;DHT22;6367;52.508;13.284;2023-07-20T01:50:33;20.30;99.90
12604;DHT22;6367;52.508;13.284;2023-07-20T01:53:00;20.30;99.90
12604;DHT22;6367;52.508;13.284;2023-07-20T01:55:26;20.30;99.90
12604;DHT22;6367;52.508;13.284;2023-07-20T01:57:52;20.30;99.90
12604;DHT22;6367;52.508;13.284;2023-07-20T02:00:18;20.20;99.90
12604;DHT22;6367;52.508;13.284;2023-07-20T02:02:46;20.20;99.90
12604;DHT22;6367;52.508;13.284;2023-07-20T02:05:12;20.20;99.90
12604;DHT22;6367;52.508;13.284;2023-07-20T02:07:38;20.20;99.90
12604;DHT22;6367;52.508;13.284;2023-07-20T02:10:04;20.20;99.90
12604;DHT22;6367;52.508;13.284;2023-07-20T02:12:29;20.20;99.90
12604;DHT22;6367;52.508;13.284;2023-07-20T02:14:55;20.20;99.90
12604;DHT22;6367;52.508;13.284;2023-07-20T02:17:21;20.10;99.90
12604;DHT22;6367;52.508;13.284;2023-07-20T02:19:46;20.10;99.90
12604;DHT22;6367;52.508;13.284;2023-07-20T02:22:15;20.10;99.90
12604;DHT22;6367;52.508;13.284;2023-07-20T02:24:42;20.10;99.90
12604;DHT22;6367;52.508;13.284;2023-07-20T02:27:07;20.00;99.90
12604;DHT22;6367;52.508;13.284;2023-07-20T02:29:33;20.00;99.90
12604;DHT22;6367;52.508;13.284;2023-07-20T02:31:59;20.00;99.90
12604;DHT22;6367;52.508;13.284;2023-07-20T02:34:25;20.00;99.90
12604;DHT22;6367;52.508;13.284;2023-07-20T02:36:50;20.00;99.90
12604;DHT22;6367;52.508;13.284;2023-07-20T02:39:16;20.00;99.90
12604;DHT22;6367;52.508;13.284;2023-07-20T02:41:42;20.00;99.90
12604;DHT22;6367;52.508;13.284;2023-07-20T02:44:07;20.00;99.90
12604;DHT22;6367;52.508;13.284;2023-07-20T02:46:33;19.90;99.90
12604;DHT22;6367;52.508;13.284;2023-07-20T02:49:00;20.00;99.90
12604;DHT22;6367;52.508;13.284;2023-07-20T02:51:26;19.90;99.90
12604;DHT22;6367;52.508;13.284;2023-07-20T02:53:52;19.90;99.90
12604;DHT22;6367;52.508;13.284;2023-07-20T02:56:17;19.90;99.90
12604;DHT22;6367;52.508;13.284;2023-07-20T02:58:43;20.00;99.90
12604;DHT22;6367;52.508;13.284;2023-07-20T03:01:11;20.00;99.90
12604;DHT22;6367;52.508;13.284;2023-07-20T03:03:37;20.00;99.90
12604;DHT22;6367;52.508;13.284;2023-07-20T03:06:04;20.00;99.90
12604;DHT22;6367;52.508;13.284;2023-07-20T03:08:30;20.00;99.90
12604;DHT22;6367;52.508;13.284;2023-07-20T03:10:55;20.00;99.90
12604;DHT22;6367;52.508;13.284;2023-07-20T03:13:21;19.90;99.90
12604;DHT22;6367;52.508;13.284;2023-07-20T03:15:47;20.00;99.90
12604;DHT22;6367;52.508;13.284;2023-07-20T03:18:12;20.00;99.90
12604;DHT22;6367;52.508;13.284;2023-07-20T03:20:38;19.90;99.90
12604;DHT22;6367;52.508;13.284;2023-07-20T03:23:04;19.80;99.90
12604;DHT22;6367;52.508;13.284;2023-07-20T03:25:30;20.00;99.90
12604;DHT22;6367;52.508;13.284;2023-07-20T03:27:55;19.90;99.90
12604;DHT22;6367;52.508;13.284;2023-07-20T03:30:21;20.00;99.90
12604;DHT22;6367;52.508;13.284;2023-07-20T03:32:46;20.00;99.90
12604;DHT22;6367;52.508;13.284;2023-07-20T03:35:12;20.00;99.90
12604;DHT22;6367;52.508;13.284;2023-07-20T03:37:38;20.00;99.90
12604;DHT22;6367;52.508;13.284;2023-07-20T03:40:04;19.90;99.90
12604;DHT22;6367;52.508;13.284;2023-07-20T03:42:30;20.00;99.90
12604;DHT22;6367;52.508;13.284;2023-07-20T03:44:56;20.00;99.90
12604;DHT22;6367;52.508;13.284;2023-07-20T03:47:21;20.00;99.90
12604;DHT22;6367;52.508;13.284;2023-07-20T03:49:47;19.90;99.90
12604;DHT22;6367;52.508;13.284;2023-07-20T03:52:13;20.00;99.90
12604;DHT22;6367;52.508;13.284;2023-07-20T03:54:38;20.00;99.90
12604;DHT22;6367;52.508;13.284;2023-07-20T03:57:04;20.00;99.90
12604;DHT22;6367;52.508;13.284;2023-07-20T03:59:30;20.10;99.90
12604;DHT22;6367;52.508;13.284;2023-07-20T04:01:55;20.10;99.90
12604;DHT22;6367;52.508;13.284;2023-07-20T04:04:21;20.00;99.90
12604;DHT22;6367;52.508;13.284;2023-07-20T04:06:47;20.00;99.90
12604;DHT22;6367;52.508;13.284;2023-07-20T04:09:12;19.90;99.90
12604;DHT22;6367;52.508;13.284;2023-07-20T04:11:38;19.80;99.90
12604;DHT22;6367;52.508;13.284;2023-07-20T04:14:04;19.90;99.90
12604;DHT22;6367;52.508;13.284;2023-07-20T04:16:30;20.00;99.90
12604;DHT22;6367;52.508;13.284;2023-07-20T04:18:56;20.00;99.90
12604;DHT22;6367;52.508;13.284;2023-07-20T04:21:22;19.90;99.90
12604;DHT22;6367;52.508;13.284;2023-07-20T04:23:48;20.00;99.90
12604;DHT22;6367;52.508;13.284;2023-07-20T04:26:13;20.00;99.90
12604;DHT22;6367;52.508;13.284;2023-07-20T04:28:40;20.00;99.90
12604;DHT22;6367;52.508;13.284;2023-07-20T04:31:14;20.00;99.90
12604;DHT22;6367;52.508;13.284;2023-07-20T04:33:40;20.00;99.90
12604;DHT22;6367;52.508;13.284;2023-07-20T04:36:06;20.00;99.90
12604;DHT22;6367;52.508;13.284;2023-07-20T04:38:33;20.00;99.90
12604;DHT22;6367;52.508;13.284;2023-07-20T04:40:58;20.00;99.90
12604;DHT22;6367;52.508;13.284;2023-07-20T04:43:24;19.90;99.90
12604;DHT22;6367;52.508;13.284;2023-07-20T04:45:49;19.90;99.90
12604;DHT22;6367;52.508;13.284;2023-07-20T04:48:16;20.00;99.90
12604;DHT22;6367;52.508;13.284;2023-07-20T04:50:46;20.00;99.90
12604;DHT22;6367;52.508;13.284;2023-07-20T04:53:12;20.00;99.90
12604;DHT22;6367;52.508;13.284;2023-07-20T04:55:48;20.00;99.90
12604;DHT22;6367;52.508;13.284;2023-07-20T04:58:15;20.00;99.90
12604;DHT22;6367;52.508;13.284;2023-07-20T05:00:42;20.10;99.90
12604;DHT22;6367;52.508;13.284;2023-07-20T05:03:08;20.10;99.90
12604;DHT22;6367;52.508;13.284;2023-07-20T05:05:33;20.10;99.90
12604;DHT22;6367;52.508;13.284;2023-07-20T05:07:59;20.00;99.90
12604;DHT22;6367;52.508;13.284;2023-07-20T05:10:25;20.10;99.90
12604;DHT22;6367;52.508;13.284;2023-07-20T05:12:50;20.10;99.90
12604;DHT22;6367;52.508;13.284;2023-07-20T05:15:16;20.20;99.90
12604;DHT22;6367;52.508;13.284;2023-07-20T05:17:41;20.10;99.90
12604;DHT22;6367;52.508;13.284;2023-07-20T05:20:07;20.20;99.90
12604;DHT22;6367;52.508;13.284;2023-07-20T05:22:36;20.30;99.90
12604;DHT22;6367;52.508;13.284;2023-07-20T05:25:06;20.30;99.90
12604;DHT22;6367;52.508;13.284;2023-07-20T05:27:32;20.30;99.90
12604;DHT22;6367;52.508;13.284;2023-07-20T05:29:58;20.40;99.90
12604;DHT22;6367;52.508;13.284;2023-07-20T05:32:24;20.40;99.90
12604;DHT22;6367;52.508;13.284;2023-07-20T05:34:52;20.40;99.90
12604;DHT22;6367;52.508;13.284;2023-07-20T05:37:18;20.40;99.90
12604;DHT22;6367;52.508;13.284;2023-07-20T05:39:43;20.40;99.90
12604;DHT22;6367;52.508;13.284;2023-07-20T05:42:09;20.40;99.90
12604;DHT22;6367;52.508;13.284;2023-07-20T05:44:35;20.30;99.90
12604;DHT22;6367;52.508;13.284;2023-07-20T05:47:00;20.50;99.90
12604;DHT22;6367;52.508;13.284;2023-07-20T05:49:28;20.50;99.90
12604;DHT22;6367;52.508;13.284;2023-07-20T05:51:54;20.50;99.90
12604;DHT22;6367;52.508;13.284;2023-07-20T05:54:21;20.50;99.90
12604;DHT22;6367;52.508;13.284;2023-07-20T05:56:47;20.50;99.90
12604;DHT22;6367;52.508;13.284;2023-07-20T05:59:13;20.40;99.90
12604;DHT22;6367;52.508;13.284;2023-07-20T06:01:38;20.40;99.90
12604;DHT22;6367;52.508;13.284;2023-07-20T06:04:04;20.40;99.90
12604;DHT22;6367;52.508;13.284;2023-07-20T06:06:30;20.40;99.90
12604;DHT22;6367;52.508;13.284;2023-07-20T06:08:55;20.40;99.90
12604;DHT22;6367;52.508;13.284;2023-07-20T06:11:21;20.30;99.90
12604;DHT22;6367;52.508;13.284;2023-07-20T06:13:46;20.30;99.90
12604;DHT22;6367;52.508;13.284;2023-07-20T06:16:12;20.20;99.90
12604;DHT22;6367;52.508;13.284;2023-07-20T06:18:38;20.30;99.90
12604;DHT22;6367;52.508;13.284;2023-07-20T06:21:04;20.30;99.90
12604;DHT22;6367;52.508;13.284;2023-07-20T06:23:30;20.40;99.90
12604;DHT22;6367;52.508;13.284;2023-07-20T06:25:56;20.50;99.90
12604;DHT22;6367;52.508;13.284;2023-07-20T06:28:21;20.40;99.90
12604;DHT22;6367;52.508;13.284;2023-07-20T06:30:47;20.40;99.90
12604;DHT22;6367;52.508;13.284;2023-07-20T06:33:12;20.50;99.90
12604;DHT22;6367;52.508;13.284;2023-07-20T06:35:41;20.60;99.90
12604;DHT22;6367;52.508;13.284;2023-07-20T06:38:08;20.60;99.90
12604;DHT22;6367;52.508;13.284;2023-07-20T06:40:34;20.60;99.90
12604;DHT22;6367;52.508;13.284;2023-07-20T06:42:59;20.60;99.90
12604;DHT22;6367;52.508;13.284;2023-07-20T06:45:25;20.70;99.90
12604;DHT22;6367;52.508;13.284;2023-07-20T06:47:51;20.70;99.90
12604;DHT22;6367;52.508;13.284;2023-07-20T06:50:16;20.70;99.90
12604;DHT22;6367;52.508;13.284;2023-07-20T06:52:42;20.80;99.90
12604;DHT22;6367;52.508;13.284;2023-07-20T06:55:08;21.00;99.90
12604;DHT22;6367;52.508;13.284;2023-07-20T06:57:33;21.20;99.90
12604;DHT22;6367;52.508;13.284;2023-07-20T06:59:59;21.20;99.90
12604;DHT22;6367;52.508;13.284;2023-07-20T07:02:25;21.40;99.90
12604;DHT22;6367;52.508;13.284;2023-07-20T07:04:50;21.50;99.90
12604;DHT22;6367;52.508;13.284;2023-07-20T07:07:16;21.70;99.90
12604;DHT22;6367;52.508;13.284;2023-07-20T07:09:42;21.80;99.90
12604;DHT22;6367;52.508;13.284;2023-07-20T07:12:08;21.80;99.90
12604;DHT22;6367;52.508;13.284;2023-07-20T07:14:34;22.00;99.90
12604;DHT22;6367;52.508;13.284;2023-07-20T07:17:00;22.30;99.70
12604;DHT22;6367;52.508;13.284;2023-07-20T07:19:26;22.70;99.00
12604;DHT22;6367;52.508;13.284;2023-07-20T07:21:51;23.00;97.90
12604;DHT22;6367;52.508;13.284;2023-07-20T07:24:17;23.10;97.50
12604;DHT22;6367;52.508;13.284;2023-07-20T07:26:43;23.10;96.90
12604;DHT22;6367;52.508;13.284;2023-07-20T07:29:09;23.00;96.60
12604;DHT22;6367;52.508;13.284;2023-07-20T07:31:35;22.90;96.30
12604;DHT22;6367;52.508;13.284;2023-07-20T07:34:04;22.60;95.90
12604;DHT22;6367;52.508;13.284;2023-07-20T07:36:31;22.60;96.20
12604;DHT22;6367;52.508;13.284;2023-07-20T07:38:57;22.50;96.30
12604;DHT22;6367;52.508;13.284;2023-07-20T07:41:23;22.50;96.30
12604;DHT22;6367;52.508;13.284;2023-07-20T07:43:48;22.40;96.40
12604;DHT22;6367;52.508;13.284;2023-07-20T07:46:14;22.40;96.50
12604;DHT22;6367;52.508;13.284;2023-07-20T07:48:40;22.50;96.30
12604;DHT22;6367;52.508;13.284;2023-07-20T07:51:05;22.60;96.00
12604;DHT22;6367;52.508;13.284;2023-07-20T07:53:32;22.70;95.80
12604;DHT22;6367;52.508;13.284;2023-07-20T07:55:58;22.70;96.10
12604;DHT22;6367;52.508;13.284;2023-07-20T07:58:23;22.70;96.10
12604;DHT22;6367;52.508;13.284;2023-07-20T08:00:49;22.70;96.10
12604;DHT22;6367;52.508;13.284;2023-07-20T08:03:15;22.60;96.00
12604;DHT22;6367;52.508;13.284;2023-07-20T08:05:41;22.60;96.00
12604;DHT22;6367;52.508;13.284;2023-07-20T08:08:07;22.60;96.00
12604;DHT22;6367;52.508;13.284;2023-07-20T08:10:34;22.60;95.70
12604;DHT22;6367;52.508;13.284;2023-07-20T08:12:59;22.40;95.60
12604;DHT22;6367;52.508;13.284;2023-07-20T08:15:25;22.40;94.90
12604;DHT22;6367;52.508;13.284;2023-07-20T08:17:51;22.40;95.20
12604;DHT22;6367;52.508;13.284;2023-07-20T08:20:17;22.50;95.20
12604;DHT22;6367;52.508;13.284;2023-07-20T08:22:43;22.50;95.00
12604;DHT22;6367;52.508;13.284;2023-07-20T08:25:09;22.50;95.00
12604;DHT22;6367;52.508;13.284;2023-07-20T08:27:35;22.50;95.00
12604;DHT22;6367;52.508;13.284;2023-07-20T08:30:01;22.50;95.50
12604;DHT22;6367;52.508;13.284;2023-07-20T08:32:26;22.50;95.20
12604;DHT22;6367;52.508;13.284;2023-07-20T08:34:52;22.50;94.70
12604;DHT22;6367;52.508;13.284;2023-07-20T08:37:19;22.60;94.70
12604;DHT22;6367;52.508;13.284;2023-07-20T08:39:45;22.60;94.60
12604;DHT22;6367;52.508;13.284;2023-07-20T08:42:11;22.60;94.60
12604;DHT22;6367;52.508;13.284;2023-07-20T08:44:38;22.70;94.60
12604;DHT22;6367;52.508;13.284;2023-07-20T08:47:06;22.80;94.40
12604;DHT22;6367;52.508;13.284;2023-07-20T08:49:32;22.70;94.30
12604;DHT22;6367;52.508;13.284;2023-07-20T08:51:59;22.80;94.40
12604;DHT22;6367;52.508;13.284;2023-07-20T08:54:30;22.90;94.10
12604;DHT22;6367;52.508;13.284;2023-07-20T08:57:02;22.70;93.50
12604;DHT22;6367;52.508;13.284;2023-07-20T08:59:29;23.10;93.60
12604;DHT22;6367;52.508;13.284;2023-07-20T09:01:56;23.10;93.10
12604;DHT22;6367;52.508;13.284;2023-07-20T09:04:23;23.10;93.40
12604;DHT22;6367;52.508;13.284;2023-07-20T09:06:50;23.10;93.20
12604;DHT22;6367;52.508;13.284;2023-07-20T09:09:16;23.20;93.00
12604;DHT22;6367;52.508;13.284;2023-07-20T09:11:42;23.30;92.70
12604;DHT22;6367;52.508;13.284;2023-07-20T09:14:09;23.30;92.60
12604;DHT22;6367;52.508;13.284;2023-07-20T09:16:49;23.40;92.50
12604;DHT22;6367;52.508;13.284;2023-07-20T09:19:15;23.50;92.30
12604;DHT22;6367;52.508;13.284;2023-07-20T09:21:44;23.60;91.90
12604;DHT22;6367;52.508;13.284;2023-07-20T09:24:11;23.50;91.90
12604;DHT22;6367;52.508;13.284;2023-07-20T09:26:41;23.60;92.00
12604;DHT22;6367;52.508;13.284;2023-07-20T09:29:08;23.80;92.10
12604;DHT22;6367;52.508;13.284;2023-07-20T09:31:35;23.90;91.90
12604;DHT22;6367;52.508;13.284;2023-07-20T09:34:01;24.00;91.20
12604;DHT22;6367;52.508;13.284;2023-07-20T09:36:27;24.00;90.90
12604;DHT22;6367;52.508;13.284;2023-07-20T09:38:53;23.90;91.00
12604;DHT22;6367;52.508;13.284;2023-07-20T09:41:20;23.90;90.70
12604;DHT22;6367;52.508;13.284;2023-07-20T09:43:46;23.70;90.50
12604;DHT22;6367;52.508;13.284;2023-07-20T09:46:12;23.70;90.50
12604;DHT22;6367;52.508;13.284;2023-07-20T09:48:37;23.50;90.70
12604;DHT22;6367;52.508;13.284;2023-07-20T09:51:04;23.40;91.10
12604;DHT22;6367;52.508;13.284;2023-07-20T09:53:33;23.30;91.40
12604;DHT22;6367;52.508;13.284;2023-07-20T09:55:59;23.20;91.70
12604;DHT22;6367;52.508;13.284;2023-07-20T09:58:26;23.10;91.90
12604;DHT22;6367;52.508;13.284;2023-07-20T10:00:55;22.90;92.30
12604;DHT22;6367;52.508;13.284;2023-07-20T10:03:27;22.80;92.70
12604;DHT22;6367;52.508;13.284;2023-07-20T10:06:00;22.60;93.20
12604;DHT22;6367;52.508;13.284;2023-07-20T10:08:30;22.50;93.40
12604;DHT22;6367;52.508;13.284;2023-07-20T10:10:57;22.50;93.50
12604;DHT22;6367;52.508;13.284;2023-07-20T10:13:29;22.40;93.60
12604;DHT22;6367;52.508;13.284;2023-07-20T10:16:03;22.40;93.80
12604;DHT22;6367;52.508;13.284;2023-07-20T10:18:50;22.40;93.70
12604;DHT22;6367;52.508;13.284;2023-07-20T10:21:20;22.30;93.90
12604;DHT22;6367;52.508;13.284;2023-07-20T10:23:48;22.30;93.20
12604;DHT22;6367;52.508;13.284;2023-07-20T10:26:14;21.70;93.20
12604;DHT22;6367;52.508;13.284;2023-07-20T10:28:40;22.20;93.60
12604;DHT22;6367;52.508;13.284;2023-07-20T10:31:09;22.10;93.80
12604;DHT22;6367;52.508;13.284;2023-07-20T10:33:36;22.20;94.20
12604;DHT22;6367;52.508;13.284;2023-07-20T10:36:04;22.10;94.60
12604;DHT22;6367;52.508;13.284;2023-07-20T10:41:21;22.00;95.90
12604;DHT22;6367;52.508;13.284;2023-07-20T10:43:50;22.00;96.20
12604;DHT22;6367;52.508;13.284;2023-07-20T10:49:06;21.90;96.90
12604;DHT22;6367;52.508;13.284;2023-07-20T10:52:04;21.90;97.10
12604;DHT22;6367;52.508;13.284;2023-07-20T10:56:57;22.00;97.60
12604;DHT22;6367;52.508;13.284;2023-07-20T11:01:49;22.10;97.60
12604;DHT22;6367;52.508;13.284;2023-07-20T11:04:15;22.20;97.60
12604;DHT22;6367;52.508;13.284;2023-07-20T11:06:45;22.20;97.40
12604;DHT22;6367;52.508;13.284;2023-07-20T11:09:15;22.30;97.40
12604;DHT22;6367;52.508;13.284;2023-07-20T11:11:46;22.40;97.30
12604;DHT22;6367;52.508;13.284;2023-07-20T11:14:30;22.40;97.00
12604;DHT22;6367;52.508;13.284;2023-07-20T11:17:11;22.40;96.50
12604;DHT22;6367;52.508;13.284;2023-07-20T11:19:37;22.40;96.00
12604;DHT22;6367;52.508;13.284;2023-07-20T11:22:04;22.40;96.10
12604;DHT22;6367;52.508;13.284;2023-07-20T11:24:33;22.40;96.30
12604;DHT22;6367;52.508;13.284;2023-07-20T11:26:59;22.50;96.50
12604;DHT22;6367;52.508;13.284;2023-07-20T11:29:25;22.50;96.60
12604;DHT22;6367;52.508;13.284;2023-07-20T11:31:52;22.50;96.50
12604;DHT22;6367;52.508;13.284;2023-07-20T11:34:20;22.70;96.80
12604;DHT22;6367;52.508;13.284;2023-07-20T11:36:47;22.80;96.60
12604;DHT22;6367;52.508;13.284;2023-07-20T11:39:14;23.00;96.20
12604;DHT22;6367;52.508;13.284;2023-07-20T11:41:48;23.20;95.90
12604;DHT22;6367;52.508;13.284;2023-07-20T11:44:16;23.30;94.90
12604;DHT22;6367;52.508;13.284;2023-07-20T11:46:43;23.50;94.80
12604;DHT22;6367;52.508;13.284;2023-07-20T11:49:10;23.80;93.50
12604;DHT22;6367;52.508;13.284;2023-07-20T11:51:37;23.90;92.80
12604;DHT22;6367;52.508;13.284;2023-07-20T11:54:05;23.90;92.30
12604;DHT22;6367;52.508;13.284;2023-07-20T11:56:31;23.90;91.80
12604;DHT22;6367;52.508;13.284;2023-07-20T11:58:58;23.90;91.70
12604;DHT22;6367;52.508;13.284;2023-07-20T12:01:26;24.00;91.80
12604;DHT22;6367;52.508;13.284;2023-07-20T12:04:04;23.90;91.90
12604;DHT22;6367;52.508;13.284;2023-07-20T12:06:30;23.80;91.90
12604;DHT22;6367;52.508;13.284;2023-07-20T12:08:59;23.70;92.00
12604;DHT22;6367;52.508;13.284;2023-07-20T12:11:34;23.60;91.90
12604;DHT22;6367;52.508;13.284;2023-07-20T12:14:01;23.50;92.00
12604;DHT22;6367;52.508;13.284;2023-07-20T12:16:28;23.50;91.80
12604;DHT22;6367;52.508;13.284;2023-07-20T12:19:07;23.40;91.40
12604;DHT22;6367;52.508;13.284;2023-07-20T12:21:38;23.60;91.70
12604;DHT22;6367;52.508;13.284;2023-07-20T12:24:04;23.50;91.40
12604;DHT22;6367;52.508;13.284;2023-07-20T12:26:31;23.50;90.60
12604;DHT22;6367;52.508;13.284;2023-07-20T12:28:57;23.50;90.40
12604;DHT22;6367;52.508;13.284;2023-07-20T12:31:23;23.50;90.20
12604;DHT22;6367;52.508;13.284;2023-07-20T12:33:52;23.50;90.10
12604;DHT22;6367;52.508;13.284;2023-07-20T12:36:18;22.80;88.90
12604;DHT22;6367;52.508;13.284;2023-07-20T12:38:45;23.50;90.10
12604;DHT22;6367;52.508;13.284;2023-07-20T12:41:12;23.60;90.00
12604;DHT22;6367;52.508;13.284;2023-07-20T12:43:44;23.70;89.80
12604;DHT22;6367;52.508;13.284;2023-07-20T12:46:12;24.00;89.50
12604;DHT22;6367;52.508;13.284;2023-07-20T12:48:39;24.10;89.10
12604;DHT22;6367;52.508;13.284;2023-07-20T12:51:07;24.10;86.60
12604;DHT22;6367;52.508;13.284;2023-07-20T12:53:33;23.80;85.50
12604;DHT22;6367;52.508;13.284;2023-07-20T12:55:59;24.40;84.30
12604;DHT22;6367;52.508;13.284;2023-07-20T12:58:25;24.70;82.80
12604;DHT22;6367;52.508;13.284;2023-07-20T13:00:51;24.80;81.50
12604;DHT22;6367;52.508;13.284;2023-07-20T13:03:16;25.00;78.70
12604;DHT22;6367;52.508;13.284;2023-07-20T13:05:47;25.10;76.00
12604;DHT22;6367;52.508;13.284;2023-07-20T13:08:13;25.00;72.20
12604;DHT22;6367;52.508;13.284;2023-07-20T13:10:39;25.00;73.00
12604;DHT22;6367;52.508;13.284;2023-07-20T13:13:05;25.20;73.30
12604;DHT22;6367;52.508;13.284;2023-07-20T13:15:32;25.30;72.50
12604;DHT22;6367;52.508;13.284;2023-07-20T13:17:59;25.30;71.40
12604;DHT22;6367;52.508;13.284;2023-07-20T13:20:25;25.40;71.80
12604;DHT22;6367;52.508;13.284;2023-07-20T13:22:52;25.50;70.60
12604;DHT22;6367;52.508;13.284;2023-07-20T13:25:17;25.60;70.50
12604;DHT22;6367;52.508;13.284;2023-07-20T13:27:44;25.70;70.00
12604;DHT22;6367;52.508;13.284;2023-07-20T13:30:10;25.70;69.70
12604;DHT22;6367;52.508;13.284;2023-07-20T13:32:45;25.80;69.50
12604;DHT22;6367;52.508;13.284;2023-07-20T13:35:14;25.70;69.50
12604;DHT22;6367;52.508;13.284;2023-07-20T13:37:40;25.70;70.40
12604;DHT22;6367;52.508;13.284;2023-07-20T13:40:07;25.80;71.00
12604;DHT22;6367;52.508;13.284;2023-07-20T13:42:34;25.80;70.50
12604;DHT22;6367;52.508;13.284;2023-07-20T13:45:00;25.80;69.50
12604;DHT22;6367;52.508;13.284;2023-07-20T13:47:26;25.70;70.50
12604;DHT22;6367;52.508;13.284;2023-07-20T13:49:52;25.70;70.60
12604;DHT22;6367;52.508;13.284;2023-07-20T13:52:17;25.80;71.10
12604;DHT22;6367;52.508;13.284;2023-07-20T13:54:43;25.90;71.30
12604;DHT22;6367;52.508;13.284;2023-07-20T13:57:09;26.00;70.60
12604;DHT22;6367;52.508;13.284;2023-07-20T13:59:35;26.00;70.70
12604;DHT22;6367;52.508;13.284;2023-07-20T14:02:00;26.00;69.80
12604;DHT22;6367;52.508;13.284;2023-07-20T14:04:26;25.90;70.90
12604;DHT22;6367;52.508;13.284;2023-07-20T14:06:52;25.90;69.90
12604;DHT22;6367;52.508;13.284;2023-07-20T14:09:17;26.00;68.80
12604;DHT22;6367;52.508;13.284;2023-07-20T14:11:43;26.00;67.30
12604;DHT22;6367;52.508;13.284;2023-07-20T14:14:09;26.00;67.50
12604;DHT22;6367;52.508;13.284;2023-07-20T14:16:34;26.00;67.00
12604;DHT22;6367;52.508;13.284;2023-07-20T14:19:00;25.90;67.00
12604;DHT22;6367;52.508;13.284;2023-07-20T14:21:26;25.90;67.20
12604;DHT22;6367;52.508;13.284;2023-07-20T14:23:52;25.70;66.30
12604;DHT22;6367;52.508;13.284;2023-07-20T14:26:19;25.70;67.30
12604;DHT22;6367;52.508;13.284;2023-07-20T14:28:45;25.70;67.10
12604;DHT22;6367;52.508;13.284;2023-07-20T14:31:10;25.70;66.70
12604;DHT22;6367;52.508;13.284;2023-07-20T14:33:36;25.70;66.80
12604;DHT22;6367;52.508;13.284;2023-07-20T14:36:03;25.50;66.50
12604;DHT22;6367;52.508;13.284;2023-07-20T14:38:30;25.60;66.90
12604;DHT22;6367;52.508;13.284;2023-07-20T14:40:57;25.50;67.10
12604;DHT22;6367;52.508;13.284;2023-07-20T14:43:23;25.50;66.70
12604;DHT22;6367;52.508;13.284;2023-07-20T14:45:49;25.40;66.80
12604;DHT22;6367;52.508;13.284;2023-07-20T14:48:14;25.40;66.40
12604;DHT22;6367;52.508;13.284;2023-07-20T14:50:40;25.20;66.20
12604;DHT22;6367;52.508;13.284;2023-07-20T14:53:06;25.30;66.80
12604;DHT22;6367;52.508;13.284;2023-07-20T14:55:33;25.30;67.10
12604;DHT22;6367;52.508;13.284;2023-07-20T14:57:58;25.30;66.30
12604;DHT22;6367;52.508;13.284;2023-07-20T15:00:24;25.20;65.90
12604;DHT22;6367;52.508;13.284;2023-07-20T15:02:51;25.30;66.40
12604;DHT22;6367;52.508;13.284;2023-07-20T15:05:22;25.50;66.40
12604;DHT22;6367;52.508;13.284;2023-07-20T15:07:48;25.50;66.10
12604;DHT22;6367;52.508;13.284;2023-07-20T15:10:14;25.60;65.70
12604;DHT22;6367;52.508;13.284;2023-07-20T15:12:40;25.60;64.50
12604;DHT22;6367;52.508;13.284;2023-07-20T15:15:08;25.70;64.10
12604;DHT22;6367;52.508;13.284;2023-07-20T15:17:34;25.50;63.60
12604;DHT22;6367;52.508;13.284;2023-07-20T15:20:05;25.50;64.50
12604;DHT22;6367;52.508;13.284;2023-07-20T15:22:34;25.80;64.00
12604;DHT22;6367;52.508;13.284;2023-07-20T15:25:04;25.50;63.00
12604;DHT22;6367;52.508;13.284;2023-07-20T15:27:30;25.70;63.80
12604;DHT22;6367;52.508;13.284;2023-07-20T15:29:56;25.60;63.30
12604;DHT22;6367;52.508;13.284;2023-07-20T15:32:22;25.60;62.90
12604;DHT22;6367;52.508;13.284;2023-07-20T15:34:48;25.40;63.00
12604;DHT22;6367;52.508;13.284;2023-07-20T15:37:14;25.40;64.00
12604;DHT22;6367;52.508;13.284;2023-07-20T15:39:40;25.50;64.60
12604;DHT22;6367;52.508;13.284;2023-07-20T15:42:06;25.50;64.40
12604;DHT22;6367;52.508;13.284;2023-07-20T15:44:32;25.50;64.80
12604;DHT22;6367;52.508;13.284;2023-07-20T15:46:57;25.40;64.50
12604;DHT22;6367;52.508;13.284;2023-07-20T15:49:23;25.50;65.00
12604;DHT22;6367;52.508;13.284;2023-07-20T15:51:53;25.50;65.00